createdAt,value
2023-04-26T00:02:17.216Z,4.70
2023-04-26T00:04:47.836Z,4.60
2023-04-26T00:07:24.399Z,4.60
2023-04-26T00:09:54.047Z,4.50
2023-04-26T00:12:22.511Z,4.50
2023-04-26T00:14:50.568Z,4.60
2023-04-26T00:17:18.677Z,4.60
2023-04-26T00:19:46.688Z,4.50
2023-04-26T00:22:14.780Z,4.50
2023-04-26T00:24:43.246Z,4.50
2023-04-26T00:27:11.957Z,4.50
2023-04-26T00:29:40.118Z,4.50
2023-04-26T00:32:08.255Z,4.50
2023-04-26T00:34:37.417Z,4.50
2023-04-26T00:37:06.516Z,4.60
2023-04-26T00:39:34.627Z,4.70
2023-04-26T00:42:03.250Z,4.80
2023-04-26T00:44:31.251Z,4.80
2023-04-26T00:46:59.494Z,4.90
2023-04-26T00:49:27.775Z,5.00
2023-04-26T00:51:55.905Z,5.00
2023-04-26T00:54:23.953Z,5.00
2023-04-26T00:56:54.381Z,5.00
2023-04-26T00:59:23.611Z,5.00
2023-04-26T01:01:51.669Z,5.00
2023-04-26T01:04:20.492Z,5.00
2023-04-26T01:06:48.720Z,5.00
2023-04-26T01:09:16.991Z,4.90
2023-04-26T01:11:45.074Z,4.90
2023-04-26T01:14:13.221Z,4.80
2023-04-26T01:16:42.071Z,4.70
2023-04-26T01:19:13.835Z,4.60
2023-04-26T01:21:42.409Z,4.60
2023-04-26T01:24:14.112Z,4.50
2023-04-26T01:26:48.212Z,4.50
2023-04-26T01:29:17.296Z,4.50
2023-04-26T01:31:45.677Z,4.50
2023-04-26T01:34:15.250Z,4.40
2023-04-26T01:36:46.206Z,4.40
2023-04-26T01:39:14.887Z,4.40
2023-04-26T01:41:43.964Z,4.40
2023-04-26T01:44:12.031Z,4.40
2023-04-26T01:46:40.165Z,4.40
2023-04-26T01:49:08.346Z,4.30
2023-04-26T01:51:36.390Z,4.20
2023-04-26T01:54:04.501Z,4.10
2023-04-26T01:56:33.642Z,3.90
2023-04-26T01:59:02.705Z,3.90
2023-04-26T02:01:32.480Z,3.90
2023-04-26T02:04:00.587Z,3.90
2023-04-26T02:06:29.225Z,3.80
2023-04-26T02:08:58.272Z,3.70
2023-04-26T02:11:28.146Z,3.60
2023-04-26T02:13:56.296Z,3.40
2023-04-26T02:16:24.392Z,3.30
2023-04-26T02:18:52.546Z,3.20
2023-04-26T02:21:20.833Z,3.20
2023-04-26T02:23:49.117Z,3.30
2023-04-26T02:26:17.213Z,3.30
2023-04-26T02:28:45.273Z,3.30
2023-04-26T02:31:14.952Z,3.20
2023-04-26T02:33:44.957Z,3.20
2023-04-26T02:36:13.712Z,3.10
2023-04-26T02:38:42.911Z,3.20
2023-04-26T02:41:11.051Z,3.10
2023-04-26T02:43:39.088Z,3.10
2023-04-26T02:46:08.671Z,3.10
2023-04-26T02:48:37.003Z,3.00
2023-04-26T02:51:05.228Z,3.00
2023-04-26T02:53:33.789Z,3.00
2023-04-26T02:56:03.148Z,3.00
2023-04-26T02:58:31.219Z,3.00
2023-04-26T03:01:01.632Z,3.00
2023-04-26T03:03:30.232Z,3.00
2023-04-26T03:05:58.269Z,3.00
2023-04-26T03:08:26.287Z,3.00
2023-04-26T03:10:54.397Z,3.00
2023-04-26T03:13:28.377Z,3.00
2023-04-26T03:16:00.324Z,2.80
2023-04-26T03:18:28.610Z,2.70
2023-04-26T03:20:57.013Z,2.70
2023-04-26T03:23:26.704Z,2.60
2023-04-26T03:25:56.005Z,2.50
2023-04-26T03:28:24.193Z,2.50
2023-04-26T03:30:52.294Z,2.60
2023-04-26T03:33:21.540Z,2.60
2023-04-26T03:35:49.640Z,2.60
2023-04-26T03:38:17.760Z,2.60
2023-04-26T03:40:46.618Z,2.60
2023-04-26T03:43:14.816Z,2.60
2023-04-26T03:45:42.854Z,2.60
2023-04-26T03:48:10.992Z,2.50
2023-04-26T03:50:39.149Z,2.40
2023-04-26T03:53:07.229Z,2.40
2023-04-26T03:55:35.249Z,2.40
2023-04-26T03:58:04.578Z,2.30
2023-04-26T04:00:32.647Z,2.20
2023-04-26T04:03:00.765Z,2.10
2023-04-26T04:05:28.937Z,2.20
2023-04-26T04:07:59.021Z,2.10
2023-04-26T04:10:27.396Z,2.00
2023-04-26T04:12:56.066Z,1.90
2023-04-26T04:15:24.360Z,1.80
2023-04-26T04:17:52.452Z,1.70
2023-04-26T04:20:21.756Z,1.70
2023-04-26T04:22:50.002Z,1.70
2023-04-26T04:25:18.464Z,1.90
2023-04-26T04:27:46.490Z,2.00
2023-04-26T04:30:15.984Z,2.10
2023-04-26T04:32:46.372Z,2.20
2023-04-26T04:35:16.277Z,2.30
2023-04-26T04:37:45.264Z,2.40
2023-04-26T04:40:14.576Z,2.30
2023-04-26T04:42:46.398Z,2.30
2023-04-26T04:45:16.159Z,2.40
2023-04-26T04:47:50.117Z,2.50
2023-04-26T04:50:22.784Z,2.50
2023-04-26T04:52:50.930Z,2.50
2023-04-26T04:55:19.179Z,2.40
2023-04-26T04:57:47.763Z,2.30
2023-04-26T05:00:17.044Z,2.30
2023-04-26T05:02:49.696Z,2.40
2023-04-26T05:05:18.124Z,2.40
2023-04-26T05:07:46.234Z,2.50
2023-04-26T05:10:15.047Z,2.50
2023-04-26T05:12:43.175Z,2.60
2023-04-26T05:15:11.669Z,2.70
2023-04-26T05:17:40.653Z,2.80
2023-04-26T05:20:20.775Z,3.00
2023-04-26T05:22:48.952Z,3.20
2023-04-26T05:25:19.708Z,3.40
2023-04-26T05:27:51.112Z,3.40
2023-04-26T05:30:30.025Z,3.60
2023-04-26T05:33:21.274Z,3.70
2023-04-26T05:36:12.379Z,3.80
2023-04-26T05:38:40.458Z,3.90
2023-04-26T05:41:08.482Z,4.10
2023-04-26T05:43:36.906Z,4.20
2023-04-26T05:46:06.001Z,4.30
2023-04-26T05:48:34.386Z,4.40
2023-04-26T05:51:02.563Z,4.50
2023-04-26T05:53:31.664Z,4.80
2023-04-26T05:56:00.178Z,5.10
2023-04-26T05:58:28.263Z,5.40
2023-04-26T06:00:57.223Z,5.70
2023-04-26T06:03:25.919Z,6.30
2023-04-26T06:05:55.249Z,6.70
2023-04-26T06:08:24.493Z,7.20
2023-04-26T06:10:52.544Z,7.50
2023-04-26T06:13:20.557Z,7.90
2023-04-26T06:15:51.634Z,8.30
2023-04-26T06:18:19.705Z,8.60
2023-04-26T06:20:48.690Z,8.70
2023-04-26T06:23:18.547Z,9.20
2023-04-26T06:25:50.768Z,9.40
2023-04-26T06:28:18.841Z,9.50
2023-04-26T06:30:48.162Z,9.50
2023-04-26T06:33:19.730Z,9.50
2023-04-26T06:35:48.180Z,9.60
2023-04-26T06:38:16.247Z,9.80
2023-04-26T06:40:44.504Z,10.00
2023-04-26T06:43:12.855Z,10.00
2023-04-26T06:45:41.580Z,10.10
2023-04-26T06:48:12.816Z,10.20
2023-04-26T06:50:43.999Z,10.30
2023-04-26T06:53:12.140Z,10.60
2023-04-26T06:55:40.187Z,10.80
2023-04-26T06:58:08.244Z,10.70
2023-04-26T07:00:36.343Z,10.80
2023-04-26T07:03:04.486Z,10.60
2023-04-26T07:05:32.772Z,10.20
2023-04-26T07:08:00.765Z,10.10
2023-04-26T07:10:28.859Z,10.40
2023-04-26T07:12:57.165Z,10.50
2023-04-26T07:15:25.269Z,10.80
2023-04-26T07:17:53.490Z,11.10
2023-04-26T07:20:23.946Z,11.30
2023-04-26T07:22:52.580Z,11.50
2023-04-26T07:25:20.680Z,11.40
2023-04-26T07:27:48.890Z,11.40
2023-04-26T07:30:17.563Z,11.50
2023-04-26T07:32:45.680Z,11.50
2023-04-26T07:35:17.409Z,11.50
2023-04-26T07:37:46.060Z,11.90
2023-04-26T07:40:14.888Z,12.20
2023-04-26T07:42:43.040Z,12.30
2023-04-26T07:45:11.459Z,12.60
2023-04-26T07:47:39.554Z,12.50
2023-04-26T07:50:07.912Z,12.30
2023-04-26T07:52:35.986Z,12.30
2023-04-26T07:55:04.128Z,12.60
2023-04-26T07:57:32.155Z,12.60
2023-04-26T08:00:00.231Z,13.00
2023-04-26T08:02:43.606Z,13.70
2023-04-26T08:05:13.103Z,13.50
2023-04-26T08:07:41.584Z,13.40
2023-04-26T08:10:09.965Z,13.20
2023-04-26T08:12:38.993Z,12.90
2023-04-26T08:15:07.250Z,12.90
2023-04-26T08:17:36.183Z,12.60
2023-04-26T08:20:07.147Z,13.50
2023-04-26T08:22:35.208Z,14.20
2023-04-26T08:25:03.241Z,13.90
2023-04-26T08:27:31.568Z,13.50
2023-04-26T08:29:59.647Z,12.90
2023-04-26T08:32:27.697Z,12.40
2023-04-26T08:34:55.676Z,12.20
2023-04-26T08:37:23.727Z,11.90
2023-04-26T08:39:51.814Z,11.40
2023-04-26T08:42:20.630Z,11.30
2023-04-26T08:44:48.656Z,11.70
2023-04-26T08:47:35.791Z,12.20
2023-04-26T08:50:05.776Z,12.60
2023-04-26T08:52:35.467Z,12.90
2023-04-26T08:55:03.843Z,12.60
2023-04-26T08:57:32.709Z,12.20
2023-04-26T09:00:00.832Z,12.00
2023-04-26T09:02:29.133Z,12.50
2023-04-26T09:04:57.512Z,12.90
2023-04-26T09:07:47.076Z,13.30
2023-04-26T09:10:19.161Z,12.90
2023-04-26T09:12:47.215Z,12.70
2023-04-26T09:15:16.576Z,12.40
2023-04-26T09:17:45.609Z,12.10
2023-04-26T09:20:30.108Z,12.20
2023-04-26T09:23:08.463Z,12.70
2023-04-26T09:25:37.363Z,13.00
2023-04-26T09:28:06.238Z,12.70
2023-04-26T09:30:40.621Z,12.40
2023-04-26T09:33:10.729Z,12.10
2023-04-26T09:35:42.493Z,11.90
2023-04-26T09:38:16.999Z,11.50
2023-04-26T09:40:46.592Z,12.00
2023-04-26T09:43:15.952Z,12.60
2023-04-26T09:45:45.176Z,12.60
2023-04-26T09:48:18.079Z,12.10
2023-04-26T09:50:47.584Z,12.00
2023-04-26T09:53:41.084Z,11.90
2023-04-26T09:56:13.372Z,11.80
2023-04-26T09:59:09.311Z,12.00
2023-04-26T10:01:38.057Z,12.60
2023-04-26T10:04:06.351Z,12.80
2023-04-26T10:06:34.642Z,13.20
2023-04-26T10:09:03.089Z,12.90
2023-04-26T10:11:31.166Z,12.70
2023-04-26T10:13:59.909Z,12.60
2023-04-26T10:16:28.079Z,12.50
2023-04-26T10:18:56.202Z,12.60
2023-04-26T10:21:28.451Z,12.60
2023-04-26T10:23:58.167Z,13.00
2023-04-26T10:26:44.983Z,13.50
2023-04-26T10:29:13.004Z,14.00
2023-04-26T10:31:59.459Z,13.40
2023-04-26T10:34:32.498Z,13.30
2023-04-26T10:37:13.347Z,13.50
2023-04-26T10:39:42.616Z,13.80
2023-04-26T10:42:26.618Z,14.10
2023-04-26T10:44:56.083Z,13.80
2023-04-26T10:47:36.357Z,13.60
2023-04-26T10:50:13.699Z,13.20
2023-04-26T10:53:02.850Z,13.00
2023-04-26T10:55:39.734Z,13.00
2023-04-26T10:58:27.968Z,13.00
2023-04-26T11:01:05.229Z,13.00
2023-04-26T11:03:33.726Z,12.80
2023-04-26T11:06:02.062Z,12.70
2023-04-26T11:08:32.996Z,12.60
2023-04-26T11:11:08.073Z,12.50
2023-04-26T11:13:39.575Z,12.40
2023-04-26T11:16:11.628Z,12.20
2023-04-26T11:18:43.753Z,12.40
2023-04-26T11:21:14.362Z,12.60
2023-04-26T11:23:42.568Z,12.90
2023-04-26T11:26:11.166Z,13.20
2023-04-26T11:28:40.310Z,13.20
2023-04-26T11:31:08.772Z,13.30
2023-04-26T11:33:37.062Z,13.60
2023-04-26T11:36:05.341Z,13.50
2023-04-26T11:38:33.717Z,13.40
2023-04-26T11:41:03.114Z,13.40
2023-04-26T11:43:32.284Z,13.40
2023-04-26T11:46:04.439Z,13.80
2023-04-26T11:48:33.166Z,14.20
2023-04-26T11:51:01.794Z,14.30
2023-04-26T11:53:39.996Z,14.10
2023-04-26T11:56:21.579Z,13.60
2023-04-26T11:58:54.086Z,13.60
2023-04-26T12:01:24.559Z,13.50
2023-04-26T12:04:01.185Z,13.50
2023-04-26T12:06:36.950Z,13.40
2023-04-26T12:09:10.451Z,13.30
2023-04-26T12:11:41.644Z,13.10
2023-04-26T12:14:11.455Z,13.20
2023-04-26T12:16:39.879Z,13.20
2023-04-26T12:19:10.008Z,13.70
2023-04-26T12:21:44.688Z,14.20
2023-04-26T12:24:31.229Z,14.40
2023-04-26T12:27:01.009Z,14.00
2023-04-26T12:29:32.078Z,14.00
2023-04-26T12:32:00.700Z,14.30
2023-04-26T12:34:28.956Z,14.40
2023-04-26T12:36:57.126Z,14.70
2023-04-26T12:39:29.468Z,15.00
2023-04-26T12:42:00.136Z,15.10
2023-04-26T12:44:35.224Z,14.70
2023-04-26T12:47:05.058Z,14.20
2023-04-26T12:49:36.261Z,14.40
2023-04-26T12:52:04.893Z,14.30
2023-04-26T12:54:33.187Z,14.50
2023-04-26T12:57:01.229Z,14.70
2023-04-26T12:59:29.332Z,14.80
2023-04-26T13:01:57.566Z,14.60
2023-04-26T13:04:26.062Z,14.50
2023-04-26T13:06:54.374Z,14.70
2023-04-26T13:09:22.952Z,15.00
2023-04-26T13:11:51.016Z,15.40
2023-04-26T13:14:19.068Z,15.50
2023-04-26T13:16:47.149Z,15.40
2023-04-26T13:19:15.165Z,15.50
2023-04-26T13:21:43.387Z,15.20
2023-04-26T13:24:11.875Z,14.40
2023-04-26T13:26:39.986Z,13.90
2023-04-26T13:29:08.256Z,13.50
2023-04-26T13:31:38.140Z,13.30
2023-04-26T13:34:06.833Z,13.50
2023-04-26T13:36:34.933Z,13.90
2023-04-26T13:39:03.121Z,14.10
2023-04-26T13:41:34.805Z,14.10
2023-04-26T13:44:06.385Z,14.60
2023-04-26T13:46:35.595Z,14.90
2023-04-26T13:49:03.966Z,15.20
2023-04-26T13:51:33.846Z,15.40
2023-04-26T13:54:04.844Z,15.50
2023-04-26T13:56:36.279Z,15.30
2023-04-26T13:59:07.503Z,15.40
2023-04-26T14:01:39.971Z,15.00
2023-04-26T14:04:12.164Z,14.40
2023-04-26T14:06:40.332Z,13.80
2023-04-26T14:09:08.407Z,13.70
2023-04-26T14:11:37.121Z,13.80
2023-04-26T14:14:05.315Z,14.10
2023-04-26T14:16:33.464Z,14.30
2023-04-26T14:19:01.555Z,14.50
2023-04-26T14:21:29.618Z,14.60
2023-04-26T14:23:57.853Z,14.70
2023-04-26T14:26:27.542Z,14.60
2023-04-26T14:28:55.703Z,15.00
2023-04-26T14:31:25.647Z,15.30
2023-04-26T14:33:54.244Z,15.20
2023-04-26T14:36:22.259Z,15.20
2023-04-26T14:38:50.420Z,15.20
2023-04-26T14:41:19.382Z,15.20
2023-04-26T14:43:47.700Z,15.10
2023-04-26T14:46:16.335Z,14.80
2023-04-26T14:48:47.978Z,14.50
2023-04-26T14:51:16.082Z,14.20
2023-04-26T14:53:44.138Z,14.20
2023-04-26T14:56:12.244Z,14.10
2023-04-26T14:58:40.295Z,14.30
2023-04-26T15:01:08.916Z,14.50
2023-04-26T15:03:37.285Z,14.70
2023-04-26T15:06:05.764Z,14.70
2023-04-26T15:08:37.297Z,14.40
2023-04-26T15:11:06.157Z,14.10
2023-04-26T15:13:34.510Z,14.10
2023-04-26T15:16:07.995Z,14.00
2023-04-26T15:18:38.802Z,14.10
2023-04-26T15:21:07.272Z,14.20
2023-04-26T15:23:36.429Z,14.30
2023-04-26T15:26:07.113Z,14.40
2023-04-26T15:28:35.176Z,14.80
2023-04-26T15:31:04.398Z,15.00
2023-04-26T15:33:32.951Z,15.10
2023-04-26T15:36:00.982Z,15.00
2023-04-26T15:38:29.072Z,14.90
2023-04-26T15:41:00.384Z,14.70
2023-04-26T15:43:28.596Z,14.60
2023-04-26T15:45:56.690Z,14.60
2023-04-26T15:48:24.755Z,14.50
2023-04-26T15:50:55.105Z,14.40
2023-04-26T15:53:23.795Z,14.40
2023-04-26T15:55:52.182Z,14.30
2023-04-26T15:58:20.325Z,14.20
2023-04-26T16:00:48.456Z,14.10
2023-04-26T16:03:16.665Z,14.10
2023-04-26T16:05:45.035Z,14.10
2023-04-26T16:08:13.090Z,14.00
2023-04-26T16:10:41.557Z,14.00
2023-04-26T16:13:09.573Z,14.00
2023-04-26T16:15:37.893Z,13.90
2023-04-26T16:18:06.005Z,13.90
2023-04-26T16:20:34.044Z,13.90
2023-04-26T16:23:02.975Z,13.80
2023-04-26T16:25:31.041Z,13.60
2023-04-26T16:27:59.080Z,13.40
2023-04-26T16:30:27.140Z,13.10
2023-04-26T16:32:58.391Z,13.00
2023-04-26T16:35:26.605Z,12.90
2023-04-26T16:37:54.585Z,12.80
2023-04-26T16:40:22.914Z,12.70
2023-04-26T16:42:51.177Z,12.80
2023-04-26T16:45:19.395Z,12.80
2023-04-26T16:47:47.480Z,12.70
2023-04-26T16:50:15.536Z,12.60
2023-04-26T16:52:43.582Z,12.60
2023-04-26T16:55:11.698Z,12.60
2023-04-26T16:57:39.716Z,12.50
2023-04-26T17:00:10.976Z,12.50
2023-04-26T17:02:39.105Z,12.60
2023-04-26T17:05:07.616Z,12.60
2023-04-26T17:07:35.922Z,12.50
2023-04-26T17:10:03.934Z,12.50
2023-04-26T17:12:32.014Z,12.50
2023-04-26T17:15:01.264Z,12.60
2023-04-26T17:17:34.241Z,12.60
2023-04-26T17:20:04.914Z,12.40
2023-04-26T17:22:33.077Z,12.40
2023-04-26T17:25:01.227Z,12.30
2023-04-26T17:27:29.303Z,12.30
2023-04-26T17:29:57.315Z,12.30
2023-04-26T17:32:25.946Z,12.20
2023-04-26T17:34:54.079Z,12.10
2023-04-26T17:37:22.395Z,12.10
2023-04-26T17:39:50.466Z,12.00
2023-04-26T17:42:18.650Z,11.90
2023-04-26T17:44:47.151Z,11.90
2023-04-26T17:47:15.305Z,11.80
2023-04-26T17:49:45.966Z,11.80
2023-04-26T17:52:14.011Z,11.80
2023-04-26T17:54:48.550Z,11.70
2023-04-26T17:57:26.030Z,11.70
2023-04-26T17:59:54.590Z,11.60
2023-04-26T18:02:22.613Z,11.60
2023-04-26T18:04:51.049Z,11.50
2023-04-26T18:07:19.214Z,11.50
2023-04-26T18:09:47.275Z,11.40
2023-04-26T18:12:15.271Z,11.40
2023-04-26T18:14:46.288Z,11.30
2023-04-26T18:17:15.163Z,11.30
2023-04-26T18:19:43.658Z,11.20
2023-04-26T18:22:11.795Z,11.20
2023-04-26T18:24:39.804Z,11.10
2023-04-26T18:27:08.488Z,11.10
2023-04-26T18:29:36.641Z,11.00
2023-04-26T18:32:04.911Z,10.90
2023-04-26T18:34:32.991Z,10.80
2023-04-26T18:37:01.081Z,10.70
2023-04-26T18:39:29.112Z,10.70
2023-04-26T18:41:57.208Z,10.60
2023-04-26T18:44:25.259Z,10.60
2023-04-26T18:47:00.187Z,10.50
2023-04-26T18:49:31.177Z,10.50
2023-04-26T18:51:59.400Z,10.40
2023-04-26T18:54:27.631Z,10.30
2023-04-26T18:56:55.739Z,10.10
2023-04-26T18:59:23.976Z,9.90
2023-04-26T19:01:52.120Z,9.50
2023-04-26T19:04:20.516Z,9.30
2023-04-26T19:06:48.688Z,9.20
2023-04-26T19:09:16.808Z,9.30
2023-04-26T19:11:45.081Z,9.30
2023-04-26T19:14:13.217Z,9.20
2023-04-26T19:16:41.293Z,9.20
2023-04-26T19:19:09.336Z,8.90
2023-04-26T19:21:37.433Z,8.60
2023-04-26T19:24:05.814Z,8.40
2023-04-26T19:26:33.988Z,8.20
2023-04-26T19:29:03.115Z,8.20
2023-04-26T19:31:32.199Z,8.10
2023-04-26T19:34:00.297Z,8.00
2023-04-26T19:36:28.812Z,7.90
2023-04-26T19:38:56.824Z,7.80
2023-04-26T19:41:25.331Z,7.70
2023-04-26T19:43:53.385Z,7.50
2023-04-26T19:46:21.677Z,7.40
2023-04-26T19:48:49.725Z,7.40
2023-04-26T19:51:18.686Z,7.30
2023-04-26T19:53:46.725Z,7.20
2023-04-26T19:56:14.741Z,7.00
2023-04-26T19:58:43.252Z,6.90
2023-04-26T20:01:11.514Z,6.80
2023-04-26T20:03:40.513Z,6.60
2023-04-26T20:06:08.983Z,6.50
2023-04-26T20:08:36.998Z,6.40
2023-04-26T20:11:05.988Z,6.40
2023-04-26T20:13:34.173Z,6.30
2023-04-26T20:16:02.246Z,6.20
2023-04-26T20:18:30.229Z,6.10
2023-04-26T20:20:58.308Z,6.00
2023-04-26T20:23:26.428Z,6.00
2023-04-26T20:25:54.477Z,5.90
2023-04-26T20:28:22.501Z,5.80
2023-04-26T20:30:50.565Z,5.80
2023-04-26T20:33:18.918Z,5.80
2023-04-26T20:35:47.260Z,5.70
2023-04-26T20:38:15.729Z,5.70
2023-04-26T20:40:43.865Z,5.70
2023-04-26T20:43:13.365Z,5.60
2023-04-26T20:45:41.981Z,5.50
2023-04-26T20:48:10.241Z,5.60
2023-04-26T20:50:45.485Z,5.50
2023-04-26T20:53:13.584Z,5.60
2023-04-26T20:55:42.937Z,5.60
2023-04-26T20:58:10.987Z,5.50
2023-04-26T21:00:39.027Z,5.60
2023-04-26T21:03:07.234Z,5.60
2023-04-26T21:05:36.139Z,5.70
2023-04-26T21:08:05.030Z,5.80
2023-04-26T21:10:33.064Z,5.90
2023-04-26T21:13:01.157Z,6.00
2023-04-26T21:15:29.214Z,6.00
2023-04-26T21:17:57.346Z,6.00
2023-04-26T21:20:25.646Z,5.80
2023-04-26T21:22:53.640Z,5.80
2023-04-26T21:25:21.947Z,5.80
2023-04-26T21:27:52.323Z,5.90
2023-04-26T21:30:20.406Z,6.00
2023-04-26T21:32:48.537Z,6.00
2023-04-26T21:35:16.709Z,6.00
2023-04-26T21:37:44.725Z,6.00
2023-04-26T21:40:12.956Z,5.90
2023-04-26T21:42:42.083Z,6.00
2023-04-26T21:45:12.936Z,6.00
2023-04-26T21:47:41.030Z,6.00
2023-04-26T21:50:09.225Z,5.90
2023-04-26T21:52:37.276Z,5.80
2023-04-26T21:55:05.519Z,5.70
2023-04-26T21:57:33.544Z,5.60
2023-04-26T22:00:01.694Z,5.70
2023-04-26T22:02:29.902Z,5.80
2023-04-26T22:04:58.183Z,5.90
2023-04-26T22:07:26.208Z,5.90
2023-04-26T22:09:54.262Z,5.90
2023-04-26T22:12:22.332Z,6.00
2023-04-26T22:14:50.353Z,5.90
2023-04-26T22:17:18.368Z,6.00
2023-04-26T22:19:46.444Z,5.90
2023-04-26T22:22:14.535Z,5.80
2023-04-26T22:24:43.038Z,5.60
2023-04-26T22:27:11.162Z,5.60
2023-04-26T22:29:39.152Z,5.60
2023-04-26T22:32:07.486Z,5.50
2023-04-26T22:34:35.568Z,5.50
2023-04-26T22:37:17.175Z,5.60
2023-04-26T22:39:51.247Z,5.70
2023-04-26T22:42:19.307Z,5.90
2023-04-26T22:44:48.237Z,5.90
2023-04-26T22:47:16.321Z,6.00
2023-04-26T22:49:44.329Z,6.00
2023-04-26T22:52:23.765Z,6.10
2023-04-26T22:54:58.850Z,6.20
2023-04-26T22:57:27.084Z,6.20
2023-04-26T22:59:55.176Z,6.20
2023-04-26T23:02:23.346Z,6.20
2023-04-26T23:04:51.907Z,6.20
2023-04-26T23:07:19.959Z,6.00
2023-04-26T23:09:48.786Z,5.70
2023-04-26T23:12:22.610Z,5.60
2023-04-26T23:14:51.884Z,5.50
2023-04-26T23:17:21.687Z,5.50
2023-04-26T23:19:49.754Z,5.50
2023-04-26T23:22:17.713Z,5.60
2023-04-26T23:24:45.821Z,5.70
2023-04-26T23:27:14.052Z,5.80
2023-04-26T23:29:42.165Z,5.80
2023-04-26T23:32:10.107Z,5.90
2023-04-26T23:34:38.127Z,5.90
2023-04-26T23:37:07.132Z,5.60
2023-04-26T23:39:36.511Z,5.50
2023-04-26T23:42:05.126Z,5.60
2023-04-26T23:44:33.126Z,5.70
2023-04-26T23:47:03.442Z,5.50
2023-04-26T23:49:31.532Z,5.40
2023-04-26T23:52:02.312Z,5.30
2023-04-26T23:54:34.414Z,5.30
2023-04-26T23:57:02.514Z,5.30
2023-04-26T23:59:30.475Z,5.20
